createdAt,value
2022-09-28T00:01:20.913Z,20.20
2022-09-28T00:03:49.844Z,20.20
2022-09-28T00:06:20.715Z,20.10
2022-09-28T00:08:50.284Z,20.10
2022-09-28T00:11:20.811Z,20.10
2022-09-28T00:13:53.302Z,20.10
2022-09-28T00:16:22.630Z,20.10
2022-09-28T00:18:51.335Z,20.10
2022-09-28T00:21:23.649Z,20.10
2022-09-28T00:24:22.930Z,20.00
2022-09-28T00:26:54.596Z,20.00
2022-09-28T00:29:27.038Z,20.10
2022-09-28T00:32:03.153Z,20.10
2022-09-28T00:34:33.307Z,20.10
2022-09-28T00:37:02.830Z,20.10
2022-09-28T00:39:32.724Z,20.10
2022-09-28T00:42:00.223Z,20.10
2022-09-28T00:44:27.273Z,20.00
2022-09-28T00:47:25.725Z,20.00
2022-09-28T00:50:03.014Z,20.00
2022-09-28T00:52:52.476Z,19.90
2022-09-28T00:55:25.366Z,19.90
2022-09-28T00:57:57.183Z,19.80
2022-09-28T01:00:24.718Z,19.80
2022-09-28T01:02:51.965Z,19.70
2022-09-28T01:05:20.907Z,19.70
2022-09-28T01:07:48.825Z,19.70
2022-09-28T01:10:16.434Z,19.70
2022-09-28T01:12:43.623Z,19.70
2022-09-28T01:15:11.440Z,19.60
2022-09-28T01:17:59.551Z,19.60
2022-09-28T01:21:10.443Z,19.50
2022-09-28T01:23:56.169Z,19.50
2022-09-28T01:27:11.269Z,19.50
2022-09-28T01:30:04.609Z,19.50
2022-09-28T01:32:43.722Z,19.50
2022-09-28T01:35:19.953Z,19.40
2022-09-28T01:38:00.685Z,19.50
2022-09-28T01:40:30.512Z,19.40
2022-09-28T01:43:06.943Z,19.40
2022-09-28T01:45:43.208Z,19.40
2022-09-28T01:48:13.290Z,19.30
2022-09-28T01:50:43.229Z,19.30
2022-09-28T01:53:23.182Z,19.20
2022-09-28T01:55:58.986Z,19.20
2022-09-28T01:58:38.412Z,19.20
2022-09-28T02:01:29.573Z,19.10
2022-09-28T02:04:42.695Z,19.20
2022-09-28T02:07:25.801Z,19.20
2022-09-28T02:09:58.590Z,19.20
2022-09-28T02:12:30.151Z,19.20
2022-09-28T02:15:14.443Z,19.20
2022-09-28T02:17:41.873Z,19.20
2022-09-28T02:20:10.242Z,19.10
2022-09-28T02:22:45.471Z,19.10
2022-09-28T02:25:27.544Z,19.10
2022-09-28T02:28:03.125Z,19.10
2022-09-28T02:30:32.706Z,19.10
2022-09-28T02:33:15.146Z,19.10
2022-09-28T02:35:43.116Z,19.10
2022-09-28T02:38:14.562Z,19.00
2022-09-28T02:40:46.597Z,19.10
2022-09-28T02:43:24.765Z,19.10
2022-09-28T02:46:05.934Z,19.10
2022-09-28T02:49:21.395Z,19.20
2022-09-28T02:52:30.250Z,19.30
2022-09-28T02:55:17.682Z,19.40
2022-09-28T02:58:07.139Z,19.50
2022-09-28T03:00:44.875Z,19.60
2022-09-28T03:03:20.182Z,19.50
2022-09-28T03:06:10.093Z,19.50
2022-09-28T03:08:59.947Z,19.40
2022-09-28T03:11:40.915Z,19.40
2022-09-28T03:14:08.370Z,19.30
2022-09-28T03:16:46.716Z,19.20
2022-09-28T03:19:16.325Z,19.20
2022-09-28T03:21:43.470Z,19.20
2022-09-28T03:24:11.281Z,19.20
2022-09-28T03:26:39.328Z,19.10
2022-09-28T03:29:07.047Z,19.20
2022-09-28T03:31:35.390Z,19.20
2022-09-28T03:34:03.126Z,19.20
2022-09-28T03:36:31.321Z,19.20
2022-09-28T03:38:59.637Z,19.20
2022-09-28T03:41:30.406Z,19.20
2022-09-28T03:43:57.573Z,19.20
2022-09-28T03:46:27.575Z,19.20
2022-09-28T03:49:01.934Z,19.20
2022-09-28T03:51:29.418Z,19.20
2022-09-28T03:53:56.513Z,19.10
2022-09-28T03:56:23.700Z,19.10
2022-09-28T03:58:51.783Z,19.10
2022-09-28T04:01:19.043Z,19.20
2022-09-28T04:03:48.096Z,19.20
2022-09-28T04:06:15.604Z,19.10
2022-09-28T04:08:43.607Z,19.10
2022-09-28T04:11:11.411Z,19.10
2022-09-28T04:13:38.685Z,19.10
2022-09-28T04:16:08.220Z,19.10
2022-09-28T04:18:36.473Z,19.00
2022-09-28T04:21:22.202Z,19.00
2022-09-28T04:24:04.714Z,19.00
2022-09-28T04:26:32.005Z,19.00
2022-09-28T04:29:17.204Z,18.90
2022-09-28T04:31:55.433Z,18.90
2022-09-28T04:34:33.126Z,18.90
2022-09-28T04:37:02.565Z,18.80
2022-09-28T04:39:29.912Z,18.80
2022-09-28T04:41:57.486Z,18.70
2022-09-28T04:44:24.711Z,18.60
2022-09-28T04:47:00.691Z,18.60
2022-09-28T04:49:49.484Z,18.50
2022-09-28T04:52:20.305Z,18.50
2022-09-28T04:54:50.877Z,18.50
2022-09-28T04:57:18.273Z,18.60
2022-09-28T04:59:45.486Z,18.60
2022-09-28T05:02:15.295Z,18.60
2022-09-28T05:05:12.133Z,18.70
2022-09-28T05:07:59.967Z,18.60
2022-09-28T05:10:27.639Z,18.70
2022-09-28T05:12:54.706Z,18.70
2022-09-28T05:15:21.848Z,18.60
2022-09-28T05:17:49.342Z,18.60
2022-09-28T05:20:41.992Z,18.60
2022-09-28T05:23:12.895Z,18.60
2022-09-28T05:25:43.091Z,18.60
2022-09-28T05:28:28.985Z,18.60
2022-09-28T05:31:15.283Z,18.60
2022-09-28T05:33:58.693Z,18.60
2022-09-28T05:36:27.568Z,18.70
2022-09-28T05:38:54.733Z,18.70
2022-09-28T05:41:21.883Z,18.80
2022-09-28T05:43:49.526Z,18.90
2022-09-28T05:46:17.687Z,18.90
2022-09-28T05:48:45.049Z,19.00
2022-09-28T05:51:12.314Z,19.10
2022-09-28T05:53:39.439Z,19.30
2022-09-28T05:56:06.819Z,19.40
2022-09-28T05:58:36.492Z,19.50
2022-09-28T06:01:03.750Z,19.60
2022-09-28T06:03:31.189Z,19.80
2022-09-28T06:06:01.865Z,19.90
2022-09-28T06:08:33.117Z,20.10
2022-09-28T06:11:35.575Z,20.30
2022-09-28T06:14:21.870Z,20.40
2022-09-28T06:16:50.278Z,20.50
2022-09-28T06:19:18.250Z,20.70
2022-09-28T06:22:09.159Z,20.80
2022-09-28T06:24:47.501Z,20.80
2022-09-28T06:27:14.749Z,20.80
2022-09-28T06:29:42.527Z,20.90
2022-09-28T06:32:09.695Z,20.90
2022-09-28T06:34:38.998Z,20.90
2022-09-28T06:37:06.251Z,21.00
2022-09-28T06:39:36.695Z,21.10
2022-09-28T06:42:04.348Z,21.10
2022-09-28T06:44:52.107Z,21.20
2022-09-28T06:47:39.513Z,21.30
2022-09-28T06:50:15.725Z,21.40
2022-09-28T06:52:52.846Z,21.50
2022-09-28T06:55:49.275Z,21.60
2022-09-28T06:58:20.058Z,21.70
2022-09-28T07:00:50.255Z,21.80
2022-09-28T07:03:22.146Z,21.80
2022-09-28T07:06:13.030Z,21.90
2022-09-28T07:09:21.820Z,22.00
2022-09-28T07:12:13.578Z,22.10
2022-09-28T07:15:01.008Z,22.20
2022-09-28T07:17:29.141Z,22.40
2022-09-28T07:20:05.104Z,22.50
2022-09-28T07:22:43.262Z,22.60
2022-09-28T07:25:17.047Z,22.70
2022-09-28T07:28:02.320Z,22.90
2022-09-28T07:30:52.537Z,23.00
2022-09-28T07:33:39.985Z,23.20
2022-09-28T07:36:36.523Z,23.20
2022-09-28T07:39:04.075Z,23.20
2022-09-28T07:41:34.179Z,23.20
2022-09-28T07:44:06.984Z,23.20
2022-09-28T07:46:37.152Z,23.20
2022-09-28T07:49:16.702Z,23.40
2022-09-28T07:52:14.682Z,23.50
2022-09-28T07:55:06.594Z,23.70
2022-09-28T07:58:03.209Z,23.80
2022-09-28T08:00:51.345Z,23.90
2022-09-28T08:03:22.512Z,24.00
2022-09-28T08:05:49.863Z,24.10
2022-09-28T08:08:17.499Z,24.20
2022-09-28T08:10:47.105Z,24.30
2022-09-28T08:13:27.002Z,24.40
2022-09-28T08:16:20.951Z,24.50
2022-09-28T08:18:56.235Z,24.60
2022-09-28T08:21:42.797Z,24.60
2022-09-28T08:24:10.632Z,24.70
2022-09-28T08:26:37.892Z,24.80
2022-09-28T08:29:06.398Z,24.90
2022-09-28T08:31:51.857Z,25.00
2022-09-28T08:34:37.889Z,25.00
2022-09-28T08:37:23.705Z,25.00
2022-09-28T08:40:24.889Z,25.10
2022-09-28T08:43:07.276Z,25.20
2022-09-28T08:46:12.818Z,25.30
2022-09-28T08:49:47.618Z,25.30
2022-09-28T08:52:23.597Z,25.50
2022-09-28T08:55:34.499Z,25.70
2022-09-28T08:58:13.496Z,25.90
2022-09-28T09:00:53.104Z,26.10
2022-09-28T09:03:32.179Z,26.20
2022-09-28T09:06:44.683Z,26.30
2022-09-28T09:09:25.998Z,26.40
2022-09-28T09:12:05.363Z,26.30
2022-09-28T09:14:39.050Z,26.20
2022-09-28T09:17:23.385Z,26.20
2022-09-28T09:20:47.830Z,26.30
2022-09-28T09:23:37.560Z,26.50
2022-09-28T09:26:24.458Z,26.50
2022-09-28T09:29:12.358Z,26.60
2022-09-28T09:32:07.413Z,26.80
2022-09-28T09:35:06.386Z,26.90
2022-09-28T09:38:00.251Z,26.80
2022-09-28T09:41:06.985Z,26.80
2022-09-28T09:44:28.057Z,26.90
2022-09-28T09:47:48.467Z,26.90
2022-09-28T09:50:44.957Z,27.10
2022-09-28T09:53:45.079Z,27.20
2022-09-28T09:56:36.267Z,27.20
2022-09-28T09:59:25.222Z,27.10
2022-09-28T10:02:30.121Z,27.10
2022-09-28T10:05:32.261Z,27.20
2022-09-28T10:08:08.444Z,27.40
2022-09-28T10:10:41.126Z,27.40
2022-09-28T10:13:11.927Z,27.40
2022-09-28T10:15:41.390Z,27.50
2022-09-28T10:18:36.007Z,27.60
2022-09-28T10:21:40.761Z,27.70
2022-09-28T10:24:35.060Z,27.70
2022-09-28T10:27:06.839Z,27.80
2022-09-28T10:29:56.147Z,27.80
2022-09-28T10:32:48.921Z,27.80
2022-09-28T10:35:19.934Z,27.60
2022-09-28T10:38:00.391Z,27.70
2022-09-28T10:40:40.198Z,27.80
2022-09-28T10:43:38.609Z,27.90
2022-09-28T10:46:15.069Z,28.00
2022-09-28T10:48:57.926Z,28.10
2022-09-28T10:51:49.847Z,28.10
2022-09-28T10:54:25.986Z,28.40
2022-09-28T10:56:55.024Z,28.50
2022-09-28T10:59:53.435Z,28.90
2022-09-28T11:02:42.971Z,29.30
2022-09-28T11:05:28.015Z,30.00
2022-09-28T11:08:02.070Z,30.50
2022-09-28T11:10:37.486Z,30.80
2022-09-28T11:13:22.814Z,30.50
2022-09-28T11:16:00.366Z,30.80
2022-09-28T11:18:35.229Z,30.50
2022-09-28T11:21:14.309Z,30.10
2022-09-28T11:24:27.386Z,29.70
2022-09-28T11:27:01.288Z,28.90
2022-09-28T11:29:43.086Z,28.60
2022-09-28T11:32:41.339Z,28.30
2022-09-28T11:35:28.687Z,28.10
2022-09-28T11:38:26.990Z,28.20
2022-09-28T11:41:52.008Z,28.00
2022-09-28T11:44:33.289Z,27.80
2022-09-28T11:47:31.790Z,27.80
2022-09-28T11:50:24.328Z,28.10
2022-09-28T11:53:14.252Z,28.70
2022-09-28T11:55:54.882Z,29.60
2022-09-28T11:58:47.746Z,29.90
2022-09-28T12:01:36.189Z,30.40
2022-09-28T12:04:31.355Z,31.00
2022-09-28T12:07:04.887Z,31.60
2022-09-28T12:09:41.401Z,32.30
2022-09-28T12:12:35.233Z,32.20
2022-09-28T12:15:26.852Z,31.90
2022-09-28T12:18:03.624Z,32.00
2022-09-28T12:20:42.446Z,32.30
2022-09-28T12:23:15.974Z,32.20
2022-09-28T12:25:55.835Z,32.20
2022-09-28T12:28:48.162Z,31.70
2022-09-28T12:31:37.671Z,31.50
2022-09-28T12:34:05.789Z,31.50
2022-09-28T12:36:43.782Z,32.20
2022-09-28T12:39:40.623Z,32.50
2022-09-28T12:43:04.120Z,32.10
2022-09-28T12:46:11.707Z,31.80
2022-09-28T12:49:03.058Z,31.40
2022-09-28T12:51:57.666Z,31.10
2022-09-28T12:54:56.076Z,30.50
2022-09-28T12:57:26.484Z,30.30
2022-09-28T13:00:16.058Z,30.60
2022-09-28T13:03:04.144Z,30.60
2022-09-28T13:05:50.146Z,30.30
2022-09-28T13:08:49.421Z,30.30
2022-09-28T13:11:34.300Z,30.10
2022-09-28T13:14:35.842Z,30.00
2022-09-28T13:17:36.224Z,29.30
2022-09-28T13:20:46.944Z,29.20
2022-09-28T13:23:18.039Z,29.20
2022-09-28T13:26:14.003Z,29.20
2022-09-28T13:28:43.699Z,29.40
2022-09-28T13:31:11.889Z,29.30
2022-09-28T13:33:44.068Z,29.00
2022-09-28T13:36:26.757Z,29.00
2022-09-28T13:38:56.078Z,29.00
2022-09-28T13:41:47.602Z,28.90
2022-09-28T13:44:22.376Z,28.60
2022-09-28T13:47:04.756Z,28.40
2022-09-28T13:49:37.842Z,28.40
2022-09-28T13:52:54.583Z,28.50
2022-09-28T13:55:37.898Z,28.60
2022-09-28T13:58:17.813Z,28.40
2022-09-28T14:01:19.247Z,28.40
2022-09-28T14:04:31.958Z,28.30
2022-09-28T14:07:21.119Z,28.20
2022-09-28T14:10:08.020Z,27.90
2022-09-28T14:12:35.247Z,27.80
2022-09-28T14:15:03.263Z,27.80
2022-09-28T14:17:33.448Z,27.80
2022-09-28T14:20:05.153Z,28.00
2022-09-28T14:22:54.123Z,28.20
2022-09-28T14:25:23.865Z,28.30
2022-09-28T14:28:05.434Z,28.40
2022-09-28T14:30:49.085Z,28.50
2022-09-28T14:33:24.502Z,28.60
2022-09-28T14:36:06.524Z,28.70
2022-09-28T14:39:04.061Z,28.70
2022-09-28T14:41:34.392Z,28.60
2022-09-28T14:44:04.719Z,28.60
2022-09-28T14:46:35.555Z,28.40
2022-09-28T14:49:05.799Z,28.20
2022-09-28T14:51:38.017Z,28.20
2022-09-28T14:54:06.671Z,27.90
2022-09-28T14:56:57.133Z,27.90
2022-09-28T14:59:27.955Z,27.80
2022-09-28T15:02:02.777Z,27.80
2022-09-28T15:04:34.578Z,27.60
2022-09-28T15:07:01.844Z,27.60
2022-09-28T15:09:29.799Z,27.50
2022-09-28T15:12:08.533Z,27.40
2022-09-28T15:14:53.485Z,27.30
2022-09-28T15:17:28.051Z,27.20
2022-09-28T15:20:24.107Z,27.10
2022-09-28T15:22:57.419Z,27.20
2022-09-28T15:25:29.744Z,26.90
2022-09-28T15:28:13.431Z,26.80
2022-09-28T15:30:40.578Z,26.70
2022-09-28T15:33:45.442Z,26.70
2022-09-28T15:36:46.576Z,26.80
2022-09-28T15:39:27.353Z,26.70
2022-09-28T15:41:54.559Z,26.60
2022-09-28T15:44:40.290Z,26.50
2022-09-28T15:47:26.318Z,26.30
2022-09-28T15:49:58.861Z,26.10
2022-09-28T15:52:43.147Z,26.10
2022-09-28T15:55:19.252Z,26.10
2022-09-28T15:57:47.485Z,26.00
2022-09-28T16:00:23.539Z,25.90
2022-09-28T16:03:05.583Z,25.80
2022-09-28T16:05:39.387Z,25.70
2022-09-28T16:08:24.841Z,25.60
2022-09-28T16:11:20.564Z,25.40
2022-09-28T16:14:06.102Z,25.30
2022-09-28T16:16:48.097Z,25.30
2022-09-28T16:19:37.832Z,25.20
2022-09-28T16:22:08.193Z,25.20
2022-09-28T16:24:38.465Z,25.10
2022-09-28T16:27:25.087Z,25.00
2022-09-28T16:30:24.421Z,24.90
2022-09-28T16:32:54.624Z,24.80
2022-09-28T16:35:26.004Z,24.80
2022-09-28T16:38:09.304Z,24.70
2022-09-28T16:40:49.554Z,24.60
2022-09-28T16:43:19.701Z,24.60
2022-09-28T16:45:47.235Z,24.50
2022-09-28T16:48:20.022Z,24.50
2022-09-28T16:50:47.507Z,24.40
2022-09-28T16:53:36.078Z,24.40
2022-09-28T16:56:04.679Z,24.20
2022-09-28T16:58:32.214Z,24.20
2022-09-28T17:01:00.283Z,24.10
2022-09-28T17:03:28.569Z,24.10
2022-09-28T17:05:58.630Z,24.10
2022-09-28T17:08:26.042Z,24.00
2022-09-28T17:11:18.015Z,24.00
2022-09-28T17:13:47.354Z,23.90
2022-09-28T17:16:32.232Z,23.90
2022-09-28T17:19:19.276Z,23.80
2022-09-28T17:21:47.270Z,23.70
2022-09-28T17:24:14.475Z,23.70
2022-09-28T17:26:43.893Z,23.70
2022-09-28T17:29:14.621Z,23.70
2022-09-28T17:31:44.201Z,23.70
2022-09-28T17:34:12.960Z,23.60
2022-09-28T17:36:42.578Z,23.60
2022-09-28T17:39:15.984Z,23.60
2022-09-28T17:41:43.224Z,23.60
2022-09-28T17:44:10.414Z,23.60
2022-09-28T17:46:40.707Z,23.50
2022-09-28T17:49:11.031Z,23.50
2022-09-28T17:51:38.473Z,23.50
2022-09-28T17:54:08.294Z,23.50
2022-09-28T17:56:37.014Z,23.40
2022-09-28T17:59:06.822Z,23.40
2022-09-28T18:01:37.997Z,23.40
2022-09-28T18:04:08.236Z,23.30
2022-09-28T18:06:37.386Z,23.30
2022-09-28T18:09:05.458Z,23.30
2022-09-28T18:11:33.567Z,23.30
2022-09-28T18:14:01.006Z,23.20
2022-09-28T18:16:29.354Z,23.20
2022-09-28T18:18:56.623Z,23.20
2022-09-28T18:21:23.874Z,23.10
2022-09-28T18:23:51.174Z,23.10
2022-09-28T18:26:21.583Z,23.10
2022-09-28T18:28:49.516Z,23.20
2022-09-28T18:31:19.225Z,23.20
2022-09-28T18:36:36.047Z,23.10
2022-09-28T18:39:03.965Z,23.10
2022-09-28T18:41:32.528Z,23.10
2022-09-28T18:44:02.577Z,23.10
2022-09-28T18:46:34.325Z,23.00
2022-09-28T18:49:01.453Z,23.00
2022-09-28T18:51:28.820Z,23.00
2022-09-28T18:53:56.271Z,23.00
2022-09-28T18:56:23.561Z,22.90
2022-09-28T18:58:53.678Z,22.90
2022-09-28T19:01:30.745Z,22.90
2022-09-28T19:04:03.158Z,22.90
2022-09-28T19:06:31.986Z,22.90
2022-09-28T19:08:59.470Z,22.90
2022-09-28T19:11:27.572Z,22.90
2022-09-28T19:13:56.107Z,22.80
2022-09-28T19:16:33.764Z,22.80
2022-09-28T19:19:03.343Z,22.80
2022-09-28T19:21:31.110Z,22.80
2022-09-28T19:24:01.396Z,22.70
2022-09-28T19:26:29.352Z,22.70
2022-09-28T19:28:58.058Z,22.60
2022-09-28T19:31:26.425Z,22.50
2022-09-28T19:33:53.619Z,22.50
2022-09-28T19:36:24.104Z,22.40
2022-09-28T19:38:52.925Z,22.40
2022-09-28T19:41:43.595Z,22.30
2022-09-28T19:44:13.758Z,22.30
2022-09-28T19:46:42.322Z,22.20
2022-09-28T19:49:25.507Z,22.20
2022-09-28T19:52:14.731Z,22.10
2022-09-28T19:54:56.793Z,22.00
2022-09-28T19:57:34.979Z,22.00
2022-09-28T20:00:03.911Z,21.90
2022-09-28T20:02:39.611Z,21.90
2022-09-28T20:05:09.635Z,21.90
2022-09-28T20:07:37.187Z,21.90
2022-09-28T20:10:04.664Z,22.00
2022-09-28T20:12:32.030Z,22.00
2022-09-28T20:14:59.276Z,22.00
2022-09-28T20:17:27.866Z,22.00
2022-09-28T20:19:54.951Z,22.00
2022-09-28T20:22:22.135Z,21.90
2022-09-28T20:24:49.433Z,22.00
2022-09-28T20:27:17.271Z,21.90
2022-09-28T20:29:47.265Z,21.90
2022-09-28T20:32:15.424Z,21.80
2022-09-28T20:34:42.671Z,21.80
2022-09-28T20:37:14.049Z,21.70
2022-09-28T20:39:44.824Z,21.70
2022-09-28T20:42:16.320Z,21.70
2022-09-28T20:44:44.068Z,21.70
2022-09-28T20:47:32.402Z,21.70
2022-09-28T20:50:23.684Z,21.70
2022-09-28T20:52:53.326Z,21.70
2022-09-28T20:55:30.066Z,21.60
2022-09-28T20:58:21.362Z,21.60
2022-09-28T21:00:52.525Z,21.60
2022-09-28T21:03:20.062Z,21.40
2022-09-28T21:05:50.801Z,21.50
2022-09-28T21:08:18.081Z,21.50
2022-09-28T21:10:45.247Z,21.50
2022-09-28T21:13:12.741Z,21.50
2022-09-28T21:15:41.311Z,21.40
2022-09-28T21:18:08.493Z,21.30
2022-09-28T21:20:35.809Z,21.30
2022-09-28T21:23:02.947Z,21.30
2022-09-28T21:25:30.128Z,21.20
2022-09-28T21:27:57.325Z,21.20
2022-09-28T21:30:24.663Z,21.10
2022-09-28T21:32:52.264Z,21.10
2022-09-28T21:35:19.523Z,21.00
2022-09-28T21:37:46.787Z,21.00
2022-09-28T21:40:14.341Z,21.00
2022-09-28T21:42:41.725Z,20.90
2022-09-28T21:45:12.441Z,20.90
2022-09-28T21:47:43.699Z,20.90
2022-09-28T21:50:11.048Z,20.90
2022-09-28T21:52:38.200Z,20.90
2022-09-28T21:55:06.007Z,20.80
2022-09-28T21:57:33.259Z,20.90
2022-09-28T22:00:00.779Z,20.90
2022-09-28T22:02:30.499Z,20.80
2022-09-28T22:04:58.281Z,20.80
2022-09-28T22:07:26.054Z,20.70
2022-09-28T22:09:53.714Z,20.70
2022-09-28T22:12:20.969Z,20.60
2022-09-28T22:14:49.137Z,20.60
2022-09-28T22:17:16.258Z,20.60
2022-09-28T22:19:43.676Z,20.60
2022-09-28T22:22:10.862Z,20.60
2022-09-28T22:24:39.626Z,20.50
2022-09-28T22:27:06.764Z,20.50
2022-09-28T22:29:34.064Z,20.50
2022-09-28T22:32:03.213Z,20.40
2022-09-28T22:34:31.987Z,20.30
2022-09-28T22:37:02.187Z,20.30
2022-09-28T22:39:34.332Z,20.30
2022-09-28T22:42:05.365Z,20.20
2022-09-28T22:44:32.567Z,20.20
2022-09-28T22:47:00.768Z,20.20
2022-09-28T22:49:28.124Z,20.20
2022-09-28T22:51:55.250Z,20.20
2022-09-28T22:54:22.497Z,20.10
2022-09-28T22:56:49.682Z,20.10
2022-09-28T22:59:17.445Z,20.10
2022-09-28T23:01:46.899Z,20.10
2022-09-28T23:04:14.295Z,20.10
2022-09-28T23:06:41.490Z,20.10
2022-09-28T23:09:09.177Z,20.10
2022-09-28T23:11:38.101Z,20.10
2022-09-28T23:14:05.948Z,20.20
2022-09-28T23:16:33.463Z,20.20
2022-09-28T23:19:00.760Z,20.20
2022-09-28T23:21:29.430Z,20.20
2022-09-28T23:24:00.116Z,20.20
2022-09-28T23:26:30.144Z,20.20
2022-09-28T23:28:58.304Z,20.20
2022-09-28T23:31:28.613Z,20.10
2022-09-28T23:34:05.931Z,20.10
2022-09-28T23:36:33.861Z,20.10
2022-09-28T23:39:01.151Z,20.00
2022-09-28T23:41:28.603Z,20.00
2022-09-28T23:43:55.933Z,19.90
2022-09-28T23:46:23.396Z,19.90
2022-09-28T23:48:50.907Z,19.90
2022-09-28T23:51:18.697Z,19.80
2022-09-28T23:53:46.218Z,19.80
2022-09-28T23:56:14.586Z,19.80
2022-09-28T23:58:41.997Z,19.80
